createdAt,value
2017-04-03T00:00:27.707Z,1019.58
2017-04-03T00:01:08.590Z,1019.58
2017-04-03T00:01:49.474Z,1019.56
2017-04-03T00:02:30.361Z,1019.51
2017-04-03T00:03:11.252Z,1019.56
2017-04-03T00:03:52.141Z,1019.57
2017-04-03T00:04:33.010Z,1019.56
2017-04-03T00:05:13.887Z,1019.57
2017-04-03T00:05:54.775Z,1019.57
2017-04-03T00:06:35.654Z,1019.55
2017-04-03T00:07:16.533Z,1019.56
2017-04-03T00:07:57.427Z,1019.54
2017-04-03T00:08:38.321Z,1019.58
2017-04-03T00:09:19.194Z,1019.53
2017-04-03T00:10:00.075Z,1019.58
2017-04-03T00:10:40.962Z,1019.55
2017-04-03T00:11:21.853Z,1019.54
2017-04-03T00:12:02.726Z,1019.53
2017-04-03T00:12:43.609Z,1019.53
2017-04-03T00:13:24.494Z,1019.53
2017-04-03T00:14:05.386Z,1019.55
2017-04-03T00:14:46.265Z,1019.54
2017-04-03T00:15:27.138Z,1019.57
2017-04-03T00:16:08.021Z,1019.56
2017-04-03T00:16:48.908Z,1019.56
2017-04-03T00:17:29.787Z,1019.55
2017-04-03T00:18:10.673Z,1019.55
2017-04-03T00:18:51.551Z,1019.53
2017-04-03T00:19:32.473Z,1019.56
2017-04-03T00:20:13.358Z,1019.6
2017-04-03T00:20:54.236Z,1019.57
2017-04-03T00:21:35.125Z,1019.53
2017-04-03T00:22:16.026Z,1019.56
2017-04-03T00:22:56.910Z,1019.56
2017-04-03T00:23:37.782Z,1019.58
2017-04-03T00:24:18.662Z,1019.56
2017-04-03T00:24:59.544Z,1019.53
2017-04-03T00:25:40.432Z,1019.58
2017-04-03T00:26:21.322Z,1019.55
2017-04-03T00:27:02.235Z,1019.52
2017-04-03T00:27:43.123Z,1019.54
2017-04-03T00:28:24.009Z,1019.52
2017-04-03T00:29:04.894Z,1019.54
2017-04-03T00:29:45.772Z,1019.56
2017-04-03T00:30:26.663Z,1019.52
2017-04-03T00:31:07.549Z,1019.54
2017-04-03T00:31:48.429Z,1019.56
2017-04-03T00:32:29.317Z,1019.57
2017-04-03T00:33:10.210Z,1019.53
2017-04-03T00:33:51.092Z,1019.58
2017-04-03T00:34:31.972Z,1019.51
2017-04-03T00:35:12.854Z,1019.58
2017-04-03T00:35:53.740Z,1019.57
2017-04-03T00:36:34.652Z,1019.57
2017-04-03T00:37:15.533Z,1019.54
2017-04-03T00:37:56.419Z,1019.57
2017-04-03T00:38:37.300Z,1019.53
2017-04-03T00:39:18.183Z,1019.54
2017-04-03T00:39:59.075Z,1019.57
2017-04-03T00:40:39.951Z,1019.56
2017-04-03T00:41:20.833Z,1019.56
2017-04-03T00:42:01.718Z,1019.56
2017-04-03T00:42:42.607Z,1019.58
2017-04-03T00:43:23.497Z,1019.56
2017-04-03T00:44:04.389Z,1019.55
2017-04-03T00:44:45.259Z,1019.58
2017-04-03T00:45:26.144Z,1019.57
2017-04-03T00:46:07.030Z,1019.62
2017-04-03T00:46:47.897Z,1019.58
2017-04-03T00:47:28.773Z,1019.59
2017-04-03T00:48:09.660Z,1019.6
2017-04-03T00:48:50.545Z,1019.59
2017-04-03T00:49:31.431Z,1019.6
2017-04-03T00:50:12.321Z,1019.62
2017-04-03T00:50:53.204Z,1019.6
2017-04-03T00:51:34.105Z,1019.61
2017-04-03T00:52:14.995Z,1019.57
2017-04-03T00:52:55.941Z,1019.61
2017-04-03T00:53:36.827Z,1019.61
2017-04-03T00:54:17.730Z,1019.62
2017-04-03T00:54:58.602Z,1019.63
2017-04-03T00:55:39.480Z,1019.63
2017-04-03T00:56:20.376Z,1019.61
2017-04-03T00:57:01.266Z,1019.59
2017-04-03T00:57:42.147Z,1019.63
2017-04-03T00:58:23.037Z,1019.64
2017-04-03T00:59:03.922Z,1019.61
2017-04-03T00:59:44.808Z,1019.61
2017-04-03T01:00:25.690Z,1019.62
2017-04-03T01:01:06.586Z,1019.63
2017-04-03T01:01:47.485Z,1019.66
2017-04-03T01:02:28.358Z,1019.66
2017-04-03T01:03:09.251Z,1019.64
2017-04-03T01:03:50.132Z,1019.64
2017-04-03T01:04:31.040Z,1019.67
2017-04-03T01:05:11.934Z,1019.66
2017-04-03T01:05:52.824Z,1019.63
2017-04-03T01:06:33.698Z,1019.65
2017-04-03T01:07:14.581Z,1019.67
2017-04-03T01:07:55.471Z,1019.65
2017-04-03T01:08:36.365Z,1019.71
2017-04-03T01:09:17.252Z,1019.68
2017-04-03T01:09:58.146Z,1019.69
2017-04-03T01:10:39.035Z,1019.73
2017-04-03T01:11:19.909Z,1019.71
2017-04-03T01:12:00.790Z,1019.73
2017-04-03T01:12:41.676Z,1019.73
2017-04-03T01:13:22.557Z,1019.71
2017-04-03T01:14:03.439Z,1019.73
2017-04-03T01:14:44.322Z,1019.76
2017-04-03T01:15:25.203Z,1019.76
2017-04-03T01:16:06.089Z,1019.74
2017-04-03T01:16:46.970Z,1019.79
2017-04-03T01:17:27.844Z,1019.76
2017-04-03T01:18:08.730Z,1019.73
2017-04-03T01:18:49.619Z,1019.76
2017-04-03T01:19:30.496Z,1019.74
2017-04-03T01:20:11.363Z,1019.77
2017-04-03T01:20:52.253Z,1019.77
2017-04-03T01:21:33.132Z,1019.77
2017-04-03T01:22:14.016Z,1019.75
2017-04-03T01:22:54.893Z,1019.79
2017-04-03T01:23:35.775Z,1019.79
2017-04-03T01:24:16.660Z,1019.77
2017-04-03T01:24:57.541Z,1019.8
2017-04-03T01:25:38.417Z,1019.77
2017-04-03T01:26:19.287Z,1019.77
2017-04-03T01:27:00.171Z,1019.75
2017-04-03T01:27:41.058Z,1019.79
2017-04-03T01:28:21.948Z,1019.74
2017-04-03T01:29:02.822Z,1019.76
2017-04-03T01:29:43.711Z,1019.76
2017-04-03T01:30:24.596Z,1019.71
2017-04-03T01:31:05.481Z,1019.76
2017-04-03T01:31:46.354Z,1019.78
2017-04-03T01:32:27.238Z,1019.77
2017-04-03T01:33:08.128Z,1019.79
2017-04-03T01:33:49.018Z,1019.76
2017-04-03T01:34:29.888Z,1019.8
2017-04-03T01:35:10.772Z,1019.8
2017-04-03T01:35:51.656Z,1019.78
2017-04-03T01:36:32.537Z,1019.78
2017-04-03T01:37:13.407Z,1019.8
2017-04-03T01:37:54.278Z,1019.75
2017-04-03T01:38:35.185Z,1019.77
2017-04-03T01:39:16.056Z,1019.77
2017-04-03T01:39:56.944Z,1019.81
2017-04-03T01:42:27.095Z,1019.83
2017-04-03T01:43:07.979Z,1019.85
2017-04-03T01:43:48.865Z,1019.84
2017-04-03T01:44:29.749Z,1019.86
2017-04-03T01:45:10.621Z,1019.86
2017-04-03T01:45:51.509Z,1019.84
2017-04-03T01:46:32.380Z,1019.86
2017-04-03T01:47:13.271Z,1019.84
2017-04-03T01:47:54.139Z,1019.92
2017-04-03T01:48:35.022Z,1019.88
2017-04-03T01:49:15.898Z,1019.83
2017-04-03T01:49:56.786Z,1019.84
2017-04-03T01:50:37.661Z,1019.83
2017-04-03T01:51:18.531Z,1019.82
2017-04-03T01:51:59.413Z,1019.85
2017-04-03T01:52:40.300Z,1019.87
2017-04-03T01:53:21.181Z,1019.87
2017-04-03T01:54:02.062Z,1019.85
2017-04-03T01:54:42.947Z,1019.9
2017-04-03T01:55:23.831Z,1019.9
2017-04-03T01:56:04.712Z,1019.89
2017-04-03T01:56:45.599Z,1019.9
2017-04-03T01:57:26.482Z,1019.91
2017-04-03T01:58:07.365Z,1019.9
2017-04-03T01:58:48.245Z,1019.91
2017-04-03T01:59:29.124Z,1019.96
2017-04-03T02:00:10.012Z,1019.92
2017-04-03T02:00:50.896Z,1019.94
2017-04-03T02:01:31.806Z,1019.94
2017-04-03T02:02:12.687Z,1019.95
2017-04-03T02:02:53.579Z,1019.93
2017-04-03T02:03:34.470Z,1019.92
2017-04-03T02:04:15.340Z,1019.98
2017-04-03T02:04:56.221Z,1019.98
2017-04-03T02:05:37.106Z,1019.98
2017-04-03T02:06:17.994Z,1019.96
2017-04-03T02:06:58.870Z,1019.99
2017-04-03T02:07:39.740Z,1019.98
2017-04-03T02:08:20.635Z,1019.96
2017-04-03T02:09:01.517Z,1019.99
2017-04-03T02:09:42.396Z,1020
2017-04-03T02:10:23.273Z,1019.97
2017-04-03T02:11:04.156Z,1019.98
2017-04-03T02:11:45.039Z,1019.99
2017-04-03T02:12:25.933Z,1019.95
2017-04-03T02:13:06.797Z,1019.99
2017-04-03T02:13:47.679Z,1019.98
2017-04-03T02:14:28.578Z,1020.01
2017-04-03T02:15:09.459Z,1019.98
2017-04-03T02:15:50.335Z,1019.97
2017-04-03T02:16:31.218Z,1019.97
2017-04-03T02:17:12.112Z,1019.96
2017-04-03T02:17:52.997Z,1019.96
2017-04-03T02:18:33.867Z,1019.96
2017-04-03T02:19:14.748Z,1019.94
2017-04-03T02:19:55.655Z,1019.94
2017-04-03T02:20:36.555Z,1019.95
2017-04-03T02:21:17.439Z,1019.94
2017-04-03T02:21:58.331Z,1019.93
2017-04-03T02:22:39.214Z,1019.96
2017-04-03T02:23:20.099Z,1019.95
2017-04-03T02:24:00.987Z,1019.97
2017-04-03T02:24:41.875Z,1020
2017-04-03T02:25:22.752Z,1019.99
2017-04-03T02:26:03.633Z,1019.97
2017-04-03T02:26:44.520Z,1020
2017-04-03T02:27:25.406Z,1020.01
2017-04-03T02:28:06.281Z,1019.98
2017-04-03T02:28:47.163Z,1020.02
2017-04-03T02:29:28.048Z,1020.03
2017-04-03T02:30:08.931Z,1020.03
2017-04-03T02:30:49.816Z,1020
2017-04-03T02:31:30.692Z,1020.03
2017-04-03T02:32:11.601Z,1020.03
2017-04-03T02:32:52.480Z,1020.02
2017-04-03T02:33:33.346Z,1020.04
2017-04-03T02:34:14.228Z,1020.02
2017-04-03T02:34:55.118Z,1020.06
2017-04-03T02:35:35.991Z,1020.06
2017-04-03T02:36:16.873Z,1020.03
2017-04-03T02:36:57.756Z,1020.06
2017-04-03T02:37:38.650Z,1020.08
2017-04-03T02:38:19.530Z,1020.08
2017-04-03T02:39:00.413Z,1020.05
2017-04-03T02:39:41.292Z,1020.06
2017-04-03T02:40:22.184Z,1020
2017-04-03T02:41:03.079Z,1020.05
2017-04-03T02:41:43.942Z,1020.06
2017-04-03T02:42:24.828Z,1020.03
2017-04-03T02:43:05.722Z,1020.05
2017-04-03T02:43:46.611Z,1020.04
2017-04-03T02:44:27.483Z,1020.05
2017-04-03T02:45:08.364Z,1020.05
2017-04-03T02:45:49.246Z,1020.07
2017-04-03T02:46:30.146Z,1020.04
2017-04-03T02:47:11.011Z,1020.09
2017-04-03T02:47:51.895Z,1020.06
2017-04-03T02:48:32.788Z,1020.06
2017-04-03T02:49:13.676Z,1020.13
2017-04-03T02:49:54.575Z,1020.12
2017-04-03T02:50:35.463Z,1020.1
2017-04-03T02:51:16.348Z,1020.12
2017-04-03T02:51:57.214Z,1020.16
2017-04-03T02:52:38.102Z,1020.12
2017-04-03T02:53:18.995Z,1020.14
2017-04-03T02:53:59.884Z,1020.15
2017-04-03T02:54:40.757Z,1020.13
2017-04-03T02:55:21.640Z,1020.11
2017-04-03T02:56:02.525Z,1020.15
2017-04-03T02:56:43.425Z,1020.14
2017-04-03T02:57:24.298Z,1020.16
2017-04-03T02:58:05.174Z,1020.16
2017-04-03T02:58:46.064Z,1020.16
2017-04-03T02:59:26.934Z,1020.15
2017-04-03T03:00:07.815Z,1020.2
2017-04-03T03:00:48.695Z,1020.19
2017-04-03T03:01:29.583Z,1020.14
2017-04-03T03:02:10.485Z,1020.14
2017-04-03T03:02:51.363Z,1020.16
2017-04-03T03:03:32.239Z,1020.17
2017-04-03T03:04:13.126Z,1020.17
2017-04-03T03:04:54.009Z,1020.17
2017-04-03T03:05:34.890Z,1020.2
2017-04-03T03:06:15.756Z,1020.2
2017-04-03T03:06:56.640Z,1020.18
2017-04-03T03:07:37.516Z,1020.21
2017-04-03T03:08:18.399Z,1020.17
2017-04-03T03:08:59.276Z,1020.21
2017-04-03T03:09:40.162Z,1020.25
2017-04-03T03:10:21.048Z,1020.23
2017-04-03T03:11:01.943Z,1020.23
2017-04-03T03:11:42.846Z,1020.25
2017-04-03T03:12:23.730Z,1020.23
2017-04-03T03:13:04.611Z,1020.25
2017-04-03T03:13:45.492Z,1020.27
2017-04-03T03:14:26.360Z,1020.22
2017-04-03T03:15:07.249Z,1020.24
2017-04-03T03:15:48.145Z,1020.2
2017-04-03T03:16:29.018Z,1020.25
2017-04-03T03:17:09.897Z,1020.27
2017-04-03T03:17:50.790Z,1020.27
2017-04-03T03:18:31.676Z,1020.28
2017-04-03T03:19:12.546Z,1020.26
2017-04-03T03:19:53.421Z,1020.26
2017-04-03T03:20:34.300Z,1020.29
2017-04-03T03:21:15.186Z,1020.24
2017-04-03T03:21:56.089Z,1020.24
2017-04-03T03:22:36.946Z,1020.27
2017-04-03T03:23:17.824Z,1020.24
2017-04-03T03:23:58.724Z,1020.31
2017-04-03T03:24:39.634Z,1020.31
2017-04-03T03:25:20.494Z,1020.3
2017-04-03T03:26:01.365Z,1020.26
2017-04-03T03:26:42.255Z,1020.29
2017-04-03T03:27:23.135Z,1020.3
2017-04-03T03:28:04.015Z,1020.31
2017-04-03T03:28:44.907Z,1020.29
2017-04-03T03:29:25.794Z,1020.31
2017-04-03T03:30:06.676Z,1020.33
2017-04-03T03:30:47.551Z,1020.28
2017-04-03T03:31:28.433Z,1020.34
2017-04-03T03:32:09.316Z,1020.34
2017-04-03T03:32:50.200Z,1020.35
2017-04-03T03:33:31.083Z,1020.37
2017-04-03T03:34:11.965Z,1020.36
2017-04-03T03:34:52.849Z,1020.38
2017-04-03T03:35:33.733Z,1020.43
2017-04-03T03:36:14.607Z,1020.41
2017-04-03T03:36:55.480Z,1020.46
2017-04-03T03:37:36.355Z,1020.39
2017-04-03T03:38:17.275Z,1020.43
2017-04-03T03:38:58.149Z,1020.43
2017-04-03T03:39:39.027Z,1020.5
2017-04-03T03:40:19.924Z,1020.43
2017-04-03T03:41:00.812Z,1020.49
2017-04-03T03:41:41.690Z,1020.48
2017-04-03T03:42:22.572Z,1020.5
2017-04-03T03:43:03.468Z,1020.45
2017-04-03T03:43:44.331Z,1020.44
2017-04-03T03:44:25.213Z,1020.46
2017-04-03T03:45:06.094Z,1020.49
2017-04-03T03:45:46.976Z,1020.51
2017-04-03T03:46:27.864Z,1020.54
2017-04-03T03:47:08.741Z,1020.56
2017-04-03T03:47:49.624Z,1020.59
2017-04-03T03:48:30.506Z,1020.58
2017-04-03T03:49:11.391Z,1020.56
2017-04-03T03:49:52.275Z,1020.57
2017-04-03T03:50:33.143Z,1020.54
2017-04-03T03:51:14.029Z,1020.55
2017-04-03T03:51:54.912Z,1020.55
2017-04-03T03:52:35.802Z,1020.55
2017-04-03T03:53:16.681Z,1020.55
2017-04-03T03:53:57.564Z,1020.59
2017-04-03T03:54:38.445Z,1020.56
2017-04-03T03:55:19.327Z,1020.6
2017-04-03T03:56:00.205Z,1020.59
2017-04-03T03:56:41.094Z,1020.58
2017-04-03T03:57:21.979Z,1020.58
2017-04-03T03:58:02.864Z,1020.59
2017-04-03T03:58:43.739Z,1020.6
2017-04-03T03:59:24.638Z,1020.6
2017-04-03T04:00:05.522Z,1020.55
2017-04-03T04:00:46.402Z,1020.57
2017-04-03T04:01:27.272Z,1020.58
2017-04-03T04:02:08.152Z,1020.59
2017-04-03T04:02:49.040Z,1020.58
2017-04-03T04:03:29.934Z,1020.63
2017-04-03T04:04:10.805Z,1020.61
2017-04-03T04:04:51.690Z,1020.6
2017-04-03T04:05:32.564Z,1020.63
2017-04-03T04:06:13.437Z,1020.66
2017-04-03T04:06:54.322Z,1020.65
2017-04-03T04:07:35.196Z,1020.65
2017-04-03T04:08:16.078Z,1020.66
2017-04-03T04:08:56.963Z,1020.66
2017-04-03T04:09:37.845Z,1020.69
2017-04-03T04:10:18.730Z,1020.72
2017-04-03T04:10:59.613Z,1020.72
2017-04-03T04:11:40.499Z,1020.73
2017-04-03T04:12:21.383Z,1020.75
2017-04-03T04:13:02.261Z,1020.8
2017-04-03T04:13:43.144Z,1020.78
2017-04-03T04:14:24.031Z,1020.84
2017-04-03T04:15:04.919Z,1020.83
2017-04-03T04:15:45.797Z,1020.84
2017-04-03T04:16:26.675Z,1020.87
2017-04-03T04:17:07.554Z,1020.82
2017-04-03T04:17:48.432Z,1020.83
2017-04-03T04:18:29.318Z,1020.88
2017-04-03T04:19:10.202Z,1020.92
2017-04-03T04:19:51.072Z,1020.88
2017-04-03T04:20:31.955Z,1020.9
2017-04-03T04:21:12.839Z,1020.9
2017-04-03T04:21:53.722Z,1020.94
2017-04-03T04:22:34.611Z,1020.9
2017-04-03T04:23:15.493Z,1020.97
2017-04-03T04:23:56.373Z,1020.99
2017-04-03T04:24:37.254Z,1021
2017-04-03T04:25:18.129Z,1021
2017-04-03T04:25:59.014Z,1020.98
2017-04-03T04:26:39.905Z,1021.01
2017-04-03T04:27:20.786Z,1021.05
2017-04-03T04:28:01.664Z,1021.05
2017-04-03T04:28:42.555Z,1021.05
2017-04-03T04:29:23.454Z,1021.1
2017-04-03T04:30:04.322Z,1021.06
2017-04-03T04:30:45.207Z,1021.09
2017-04-03T04:31:26.087Z,1021.12
2017-04-03T04:32:06.969Z,1021.15
2017-04-03T04:32:47.856Z,1021.16
2017-04-03T04:33:28.737Z,1021.13
2017-04-03T04:34:09.622Z,1021.2
2017-04-03T04:34:50.503Z,1021.16
2017-04-03T04:35:31.388Z,1021.18
2017-04-03T04:36:12.266Z,1021.21
2017-04-03T04:36:53.158Z,1021.21
2017-04-03T04:37:34.029Z,1021.23
2017-04-03T04:38:14.918Z,1021.24
2017-04-03T04:38:55.797Z,1021.22
2017-04-03T04:39:36.677Z,1021.23
2017-04-03T04:40:17.566Z,1021.29
2017-04-03T04:40:58.444Z,1021.29
2017-04-03T04:41:39.323Z,1021.29
2017-04-03T04:42:20.203Z,1021.28
2017-04-03T04:43:01.088Z,1021.31
2017-04-03T04:43:41.971Z,1021.33
2017-04-03T04:44:22.852Z,1021.3
2017-04-03T04:45:03.725Z,1021.34
2017-04-03T04:45:44.617Z,1021.32
2017-04-03T04:46:25.507Z,1021.31
2017-04-03T04:47:06.384Z,1021.4
2017-04-03T04:47:47.261Z,1021.34
2017-04-03T04:48:28.149Z,1021.37
2017-04-03T04:49:09.026Z,1021.38
2017-04-03T04:49:49.903Z,1021.4
2017-04-03T04:50:30.779Z,1021.43
2017-04-03T04:51:11.655Z,1021.45
2017-04-03T04:51:52.540Z,1021.45
2017-04-03T04:52:33.421Z,1021.45
2017-04-03T04:53:14.295Z,1021.45
2017-04-03T04:53:55.235Z,1021.47
2017-04-03T04:54:36.119Z,1021.43
2017-04-03T04:55:17.002Z,1021.49
2017-04-03T04:55:57.886Z,1021.43
2017-04-03T04:56:38.772Z,1021.44
2017-04-03T04:57:19.656Z,1021.45
2017-04-03T04:58:00.537Z,1021.45
2017-04-03T04:58:41.418Z,1021.41
2017-04-03T04:59:22.302Z,1021.47
2017-04-03T05:00:03.173Z,1021.45
2017-04-03T05:00:44.059Z,1021.48
2017-04-03T05:01:24.939Z,1021.45
2017-04-03T05:02:05.836Z,1021.48
2017-04-03T05:02:46.704Z,1021.47
2017-04-03T05:03:27.578Z,1021.48
2017-04-03T05:04:08.538Z,1021.46
2017-04-03T05:04:49.363Z,1021.49
2017-04-03T05:05:30.243Z,1021.53
2017-04-03T05:06:11.118Z,1021.5
2017-04-03T05:06:51.987Z,1021.49
2017-04-03T05:07:32.889Z,1021.52
2017-04-03T05:08:13.796Z,1021.5
2017-04-03T05:08:54.654Z,1021.49
2017-04-03T05:09:35.561Z,1021.52
2017-04-03T05:10:16.415Z,1021.5
2017-04-03T05:10:57.298Z,1021.48
2017-04-03T05:11:38.178Z,1021.49
2017-04-03T05:12:19.059Z,1021.48
2017-04-03T05:12:59.950Z,1021.51
2017-04-03T05:13:40.842Z,1021.53
2017-04-03T05:14:21.718Z,1021.51
2017-04-03T05:15:02.603Z,1021.52
2017-04-03T05:15:43.539Z,1021.51
2017-04-03T05:16:24.456Z,1021.51
2017-04-03T05:17:05.336Z,1021.57
2017-04-03T05:17:46.212Z,1021.53
2017-04-03T05:18:27.104Z,1021.52
2017-04-03T05:19:07.989Z,1021.55
2017-04-03T05:19:48.894Z,1021.56
2017-04-03T05:20:29.766Z,1021.57
2017-04-03T05:21:10.669Z,1021.56
2017-04-03T05:21:51.543Z,1021.58
2017-04-03T05:22:32.430Z,1021.56
2017-04-03T05:23:13.311Z,1021.57
2017-04-03T05:23:54.200Z,1021.57
2017-04-03T05:24:35.097Z,1021.54
2017-04-03T05:25:15.991Z,1021.57
2017-04-03T05:25:56.881Z,1021.57
2017-04-03T05:26:37.762Z,1021.6
2017-04-03T05:27:18.646Z,1021.6
2017-04-03T05:27:59.534Z,1021.62
2017-04-03T05:28:40.433Z,1021.59
2017-04-03T05:29:21.389Z,1021.64
2017-04-03T05:30:02.180Z,1021.67
2017-04-03T05:30:43.108Z,1021.62
2017-04-03T05:31:23.993Z,1021.67
2017-04-03T05:32:04.889Z,1021.68
2017-04-03T05:32:45.779Z,1021.7
2017-04-03T05:33:26.656Z,1021.78
2017-04-03T05:34:07.538Z,1021.79
2017-04-03T05:34:48.429Z,1021.79
2017-04-03T05:35:29.309Z,1021.79
2017-04-03T05:36:10.187Z,1021.83
2017-04-03T05:36:51.072Z,1021.8
2017-04-03T05:37:31.953Z,1021.84
2017-04-03T05:38:12.846Z,1021.89
2017-04-03T05:38:53.713Z,1021.9
2017-04-03T05:39:34.593Z,1021.95
2017-04-03T05:40:15.476Z,1021.92
2017-04-03T05:40:56.359Z,1021.94
2017-04-03T05:41:37.235Z,1021.94
2017-04-03T05:42:18.163Z,1021.94
2017-04-03T05:42:59.103Z,1021.99
2017-04-03T05:43:40.030Z,1021.98
2017-04-03T05:44:20.955Z,1021.96
2017-04-03T05:45:01.831Z,1021.99
2017-04-03T05:45:42.700Z,1021.98
2017-04-03T05:46:23.581Z,1021.97
2017-04-03T05:47:04.467Z,1021.99
2017-04-03T05:47:45.351Z,1021.97
2017-04-03T05:49:54.320Z,1022.02
2017-04-03T05:50:35.247Z,1022.04
2017-04-03T05:51:16.134Z,1022.05
2017-04-03T05:51:57.026Z,1022.05
2017-04-03T05:52:37.898Z,1022.08
2017-04-03T05:53:18.760Z,1022.08
2017-04-03T05:53:59.633Z,1022.09
2017-04-03T05:54:40.534Z,1022.11
2017-04-03T05:55:21.422Z,1022.14
2017-04-03T05:56:02.315Z,1022.12
2017-04-03T05:56:43.210Z,1022.16
2017-04-03T05:57:24.084Z,1022.18
2017-04-03T05:58:04.965Z,1022.17
2017-04-03T05:58:45.845Z,1022.19
2017-04-03T05:59:26.754Z,1022.21
2017-04-03T06:00:07.636Z,1022.17
2017-04-03T06:00:48.521Z,1022.22
2017-04-03T06:01:29.388Z,1022.23
2017-04-03T06:02:10.268Z,1022.22
2017-04-03T06:02:51.150Z,1022.27
2017-04-03T06:03:32.030Z,1022.23
2017-04-03T06:04:12.906Z,1022.24
2017-04-03T06:04:53.773Z,1022.27
2017-04-03T06:05:34.640Z,1022.24
2017-04-03T06:06:15.521Z,1022.29
2017-04-03T06:06:56.410Z,1022.27
2017-04-03T06:07:37.294Z,1022.31
2017-04-03T06:08:18.173Z,1022.29
2017-04-03T06:08:59.069Z,1022.32
2017-04-03T06:09:39.949Z,1022.32
2017-04-03T06:10:20.829Z,1022.28
2017-04-03T06:11:01.705Z,1022.28
2017-04-03T06:11:42.592Z,1022.26
2017-04-03T06:12:23.464Z,1022.23
2017-04-03T06:13:04.346Z,1022.26
2017-04-03T06:13:45.226Z,1022.27
2017-04-03T06:14:26.109Z,1022.28
2017-04-03T06:15:06.993Z,1022.28
2017-04-03T06:15:47.875Z,1022.28
2017-04-03T06:16:28.758Z,1022.31
2017-04-03T06:17:09.634Z,1022.35
2017-04-03T06:17:50.515Z,1022.32
2017-04-03T06:18:31.403Z,1022.37
2017-04-03T06:19:12.288Z,1022.36
2017-04-03T06:19:53.163Z,1022.33
2017-04-03T06:20:34.055Z,1022.38
2017-04-03T06:21:14.922Z,1022.4
2017-04-03T06:21:55.802Z,1022.44
2017-04-03T06:22:36.719Z,1022.39
2017-04-03T06:23:17.611Z,1022.39
2017-04-03T06:23:58.501Z,1022.41
2017-04-03T06:24:39.376Z,1022.4
2017-04-03T06:25:20.256Z,1022.42
2017-04-03T06:26:01.142Z,1022.45
2017-04-03T06:26:42.029Z,1022.42
2017-04-03T06:27:22.914Z,1022.42
2017-04-03T06:28:03.795Z,1022.4
2017-04-03T06:28:44.682Z,1022.41
2017-04-03T06:29:25.573Z,1022.45
2017-04-03T06:30:06.459Z,1022.44
2017-04-03T06:30:47.341Z,1022.46
2017-04-03T06:31:28.225Z,1022.47
2017-04-03T06:32:09.106Z,1022.49
2017-04-03T06:32:49.986Z,1022.51
2017-04-03T06:33:30.874Z,1022.49
2017-04-03T06:34:11.746Z,1022.47
2017-04-03T06:34:52.635Z,1022.47
2017-04-03T06:35:33.516Z,1022.51
2017-04-03T06:36:14.394Z,1022.53
2017-04-03T06:36:55.282Z,1022.51
2017-04-03T06:37:36.169Z,1022.53
2017-04-03T06:38:17.061Z,1022.51
2017-04-03T06:38:57.952Z,1022.53
2017-04-03T06:39:38.835Z,1022.56
2017-04-03T06:40:19.711Z,1022.54
2017-04-03T06:41:00.594Z,1022.55
2017-04-03T06:41:41.475Z,1022.57
2017-04-03T06:42:22.351Z,1022.58
2017-04-03T06:43:03.253Z,1022.6
2017-04-03T06:43:44.132Z,1022.57
2017-04-03T06:44:25.028Z,1022.61
2017-04-03T06:45:05.922Z,1022.6
2017-04-03T06:45:46.786Z,1022.59
2017-04-03T06:46:27.687Z,1022.62
2017-04-03T06:47:08.614Z,1022.61
2017-04-03T06:47:49.461Z,1022.64
2017-04-03T06:48:30.336Z,1022.65
2017-04-03T06:49:11.229Z,1022.64
2017-04-03T06:49:52.109Z,1022.68
2017-04-03T06:50:32.986Z,1022.65
2017-04-03T06:51:13.893Z,1022.66
2017-04-03T06:53:22.898Z,1022.64
2017-04-03T06:54:03.802Z,1022.67
2017-04-03T06:54:44.684Z,1022.67
2017-04-03T06:55:25.552Z,1022.71
2017-04-03T06:56:06.430Z,1022.68
2017-04-03T06:56:47.321Z,1022.72
2017-04-03T06:57:28.201Z,1022.73
2017-04-03T06:58:09.082Z,1022.7
2017-04-03T06:58:49.957Z,1022.7
2017-04-03T06:59:30.835Z,1022.69
2017-04-03T07:00:11.720Z,1022.65
2017-04-03T07:00:52.601Z,1022.65
2017-04-03T07:03:01.584Z,1022.63
2017-04-03T07:03:42.470Z,1022.67
2017-04-03T07:04:23.355Z,1022.71
2017-04-03T07:05:04.240Z,1022.71
2017-04-03T07:05:45.120Z,1022.7
2017-04-03T07:06:26.003Z,1022.71
2017-04-03T07:07:06.893Z,1022.66
2017-04-03T07:07:47.772Z,1022.7
2017-04-03T07:08:28.704Z,1022.71
2017-04-03T07:09:09.595Z,1022.74
2017-04-03T07:09:50.470Z,1022.75
2017-04-03T07:10:31.352Z,1022.72
2017-04-03T07:11:12.234Z,1022.74
2017-04-03T07:11:53.123Z,1022.78
2017-04-03T07:12:34.002Z,1022.76
2017-04-03T07:13:14.886Z,1022.77
2017-04-03T07:13:55.768Z,1022.75
2017-04-03T07:14:36.646Z,1022.74
2017-04-03T07:15:17.516Z,1022.74
2017-04-03T07:15:58.396Z,1022.76
2017-04-03T07:16:39.293Z,1022.77
2017-04-03T07:17:20.158Z,1022.75
2017-04-03T07:18:01.040Z,1022.75
2017-04-03T07:18:41.931Z,1022.79
2017-04-03T07:19:22.812Z,1022.8
2017-04-03T07:20:03.693Z,1022.79
2017-04-03T07:20:44.570Z,1022.78
2017-04-03T07:21:25.458Z,1022.8
2017-04-03T07:22:06.341Z,1022.8
2017-04-03T07:22:47.229Z,1022.78
2017-04-03T07:23:28.124Z,1022.82
2017-04-03T07:24:09.004Z,1022.8
2017-04-03T07:24:49.886Z,1022.78
2017-04-03T07:25:30.763Z,1022.76
2017-04-03T07:26:11.645Z,1022.79
2017-04-03T07:26:52.533Z,1022.78
2017-04-03T07:27:33.417Z,1022.78
2017-04-03T07:28:14.300Z,1022.81
2017-04-03T07:28:55.181Z,1022.81
2017-04-03T07:29:36.083Z,1022.83
2017-04-03T07:30:16.959Z,1022.83
2017-04-03T07:30:57.832Z,1022.87
2017-04-03T07:31:38.719Z,1022.85
2017-04-03T07:32:19.602Z,1022.85
2017-04-03T07:33:00.504Z,1022.86
2017-04-03T07:33:41.390Z,1022.9
2017-04-03T07:34:22.271Z,1022.89
2017-04-03T07:35:03.152Z,1022.9
2017-04-03T07:35:44.035Z,1022.89
2017-04-03T07:36:24.917Z,1022.96
2017-04-03T07:37:05.814Z,1022.97
2017-04-03T07:37:46.695Z,1022.99
2017-04-03T07:38:27.570Z,1022.96
2017-04-03T07:39:08.441Z,1022.98
2017-04-03T07:39:49.316Z,1022.96
2017-04-03T07:40:30.205Z,1022.99
2017-04-03T07:41:11.092Z,1023
2017-04-03T07:41:51.960Z,1022.99
2017-04-03T07:42:32.851Z,1023
2017-04-03T07:43:13.740Z,1022.97
2017-04-03T07:43:54.618Z,1022.97
2017-04-03T07:44:35.500Z,1022.97
2017-04-03T07:45:16.380Z,1022.98
2017-04-03T07:45:57.270Z,1022.95
2017-04-03T07:46:38.159Z,1022.97
2017-04-03T07:47:19.031Z,1022.97
2017-04-03T07:47:59.911Z,1022.96
2017-04-03T07:48:40.794Z,1022.95
2017-04-03T07:49:21.676Z,1023
2017-04-03T07:50:02.559Z,1022.99
2017-04-03T07:50:43.444Z,1022.99
2017-04-03T07:51:24.343Z,1022.97
2017-04-03T07:52:05.229Z,1023.04
2017-04-03T07:52:46.098Z,1023
2017-04-03T07:53:26.978Z,1023.02
2017-04-03T07:54:07.867Z,1023.05
2017-04-03T07:54:48.741Z,1023.02
2017-04-03T07:55:29.621Z,1022.98
2017-04-03T07:56:10.515Z,1023.03
2017-04-03T07:56:51.412Z,1023.04
2017-04-03T07:57:32.310Z,1023.11
2017-04-03T07:58:13.191Z,1023.03
2017-04-03T07:58:54.073Z,1023.06
2017-04-03T07:59:34.952Z,1023.05
2017-04-03T08:00:15.837Z,1023.03
2017-04-03T08:00:56.716Z,1023.04
2017-04-03T08:01:37.622Z,1023.11
2017-04-03T08:02:18.490Z,1023.06
2017-04-03T08:02:59.369Z,1023.11
2017-04-03T08:03:40.257Z,1023.1
2017-04-03T08:04:21.158Z,1023.16
2017-04-03T08:05:02.023Z,1023.13
2017-04-03T08:05:42.896Z,1023.15
2017-04-03T08:06:23.779Z,1023.13
2017-04-03T08:07:04.654Z,1023.15
2017-04-03T08:07:45.538Z,1023.13
2017-04-03T08:08:26.413Z,1023.17
2017-04-03T08:09:07.313Z,1023.17
2017-04-03T08:09:48.191Z,1023.16
2017-04-03T08:10:29.036Z,1023.18
2017-04-03T08:11:09.927Z,1023.21
2017-04-03T08:11:50.802Z,1023.21
2017-04-03T08:12:31.678Z,1023.2
2017-04-03T08:13:12.561Z,1023.17
2017-04-03T08:13:53.448Z,1023.14
2017-04-03T08:14:34.327Z,1023.23
2017-04-03T08:15:15.210Z,1023.26
2017-04-03T08:15:56.089Z,1023.22
2017-04-03T08:16:36.966Z,1023.24
2017-04-03T08:17:17.860Z,1023.26
2017-04-03T08:17:58.751Z,1023.24
2017-04-03T08:18:39.623Z,1023.29
2017-04-03T08:19:20.505Z,1023.3
2017-04-03T08:20:01.385Z,1023.27
2017-04-03T08:20:42.277Z,1023.33
2017-04-03T08:21:23.145Z,1023.28
2017-04-03T08:22:04.029Z,1023.3
2017-04-03T08:22:44.910Z,1023.29